Terminal Aerodrome Forecast
Issued by NWS Cleveland, OH

Home | Current Version | Previous Version | Text Only | Print | Product List | Glossary On
Versions: 1 2 3 4 5 6 7 8 9 10 11 12 13 14 15 16 17 18
188
FTUS41 KCLE 220906 AAB
TAFCAK
TAF AMD
KCAK 220906Z 2209/2306 18005KT 1/4SM FG OVC002
      TEMPO 2209/2212 3/4SM BR OVC005
     FM221200 19007KT 1 1/2SM -SHRA OVC005
      TEMPO 2212/2215 5SM -SHRA BR OVC012
     FM221500 19012G20KT P6SM BKN035 BKN060=

USA.gov is the U.S. government's official web portal to all federal, state and local government web resources and services.